Time;durP1;ratioP1;P1;durP2;ratioP2;P2;SDS_P1;SDS_P2;PMS_P1;PMS_P2;Temp;Humidity;BMP_temperature;BMP_pressure;BME280_temperature;BME280_humidity;BME280_pressure;Samples;Min_cycle;Max_cycle;Signal;HPM_P1;HPM_P2
2023/12/13 00:01:06;;;;;;;2.40;1.80;;;;;;;;;;5144242;28;20133;-60
2023/12/13 00:03:37;;;;;;;1.75;1.15;;;;;;;;;;5128259;28;20043;-61
2023/12/13 00:06:08;;;;;;;1.30;1.03;;;;;;;;;;5128179;28;20047;-61
2023/12/13 00:08:39;;;;;;;3.17;1.40;;;;;;;;;;5154846;28;20053;-61
2023/12/13 00:11:10;;;;;;;3.85;1.75;;;;;;;;;;5144233;28;20062;-61
2023/12/13 00:13:42;;;;;;;3.10;1.80;;;;;;;;;;5144274;28;20038;-62
2023/12/13 00:16:13;;;;;;;2.95;1.80;;;;;;;;;;5144053;28;20118;-61
2023/12/13 00:18:46;;;;;;;2.67;1.97;;;;;;;;;;5160714;28;20054;-60
2023/12/13 00:21:18;;;;;;;2.15;1.60;;;;;;;;;;5127441;28;20281;-61
2023/12/13 00:23:49;;;;;;;2.10;1.80;;;;;;;;;;5160029;28;20057;-62
2023/12/13 00:26:20;;;;;;;2.80;1.98;;;;;;;;;;5159691;28;20038;-60
2023/12/13 00:28:51;;;;;;;4.68;2.10;;;;;;;;;;5159757;28;20145;-60
2023/12/13 00:31:22;;;;;;;3.80;1.93;;;;;;;;;;5143593;28;20046;-61
2023/12/13 00:33:53;;;;;;;3.33;2.25;;;;;;;;;;5143660;28;20043;-61
2023/12/13 00:36:24;;;;;;;4.22;2.30;;;;;;;;;;5143510;28;20074;-60
2023/12/13 00:38:55;;;;;;;2.95;2.17;;;;;;;;;;5127728;28;20394;-61
2023/12/13 00:41:27;;;;;;;3.88;2.17;;;;;;;;;;5127642;28;20343;-61
2023/12/13 00:43:58;;;;;;;4.30;2.30;;;;;;;;;;5127494;28;20552;-60
2023/12/13 00:46:29;;;;;;;3.83;2.30;;;;;;;;;;5143260;28;20490;-61
2023/12/13 00:49:00;;;;;;;4.18;2.65;;;;;;;;;;5142898;28;20050;-60
2023/12/13 00:51:31;;;;;;;3.78;2.65;;;;;;;;;;5143124;28;20038;-61
2023/12/13 00:54:03;;;;;;;6.57;2.60;;;;;;;;;;5143184;28;20039;-65
2023/12/13 00:56:36;;;;;;;5.18;2.65;;;;;;;;;;5126912;28;20055;-61
2023/12/13 00:59:07;;;;;;;4.15;2.63;;;;;;;;;;5126828;28;20051;-62
2023/12/13 01:01:44;;;;;;;3.95;2.00;;;;;;;;;;5127256;28;20414;-64
2023/12/13 01:04:15;;;;;;;3.33;2.17;;;;;;;;;;5142896;28;20043;-61
2023/12/13 01:06:47;;;;;;;3.63;2.33;;;;;;;;;;5142446;28;20038;-60
2023/12/13 01:09:18;;;;;;;3.50;1.58;;;;;;;;;;5136648;28;20035;-61
2023/12/13 01:11:49;;;;;;;2.58;1.52;;;;;;;;;;5143030;28;20047;-62
2023/12/13 01:14:20;;;;;;;2.78;1.23;;;;;;;;;;5139156;28;20673;-62
2023/12/13 01:16:52;;;;;;;2.45;1.58;;;;;;;;;;5122999;29;20043;-63
2023/12/13 01:19:24;;;;;;;1.85;1.30;;;;;;;;;;5123286;29;20883;-60
2023/12/13 01:21:55;;;;;;;3.65;1.35;;;;;;;;;;5138887;28;20086;-62
2023/12/13 01:24:26;;;;;;;4.22;1.08;;;;;;;;;;5138997;28;20039;-62
2023/12/13 01:26:58;;;;;;;2.60;0.82;;;;;;;;;;5125946;28;20478;-62
2023/12/13 01:29:30;;;;;;;1.80;0.98;;;;;;;;;;5142844;28;20099;-63
2023/12/13 01:32:01;;;;;;;1.92;0.80;;;;;;;;;;5142645;28;20054;-61
2023/12/13 01:34:33;;;;;;;1.10;0.57;;;;;;;;;;5142792;28;20035;-63
2023/12/13 01:37:04;;;;;;;0.68;0.50;;;;;;;;;;5126922;28;20457;-62
2023/12/13 01:39:35;;;;;;;0.70;0.50;;;;;;;;;;5142435;28;20186;-61
2023/12/13 01:42:06;;;;;;;1.02;0.40;;;;;;;;;;5142256;28;20046;-61
2023/12/13 01:44:38;;;;;;;1.10;0.80;;;;;;;;;;5126623;28;20038;-60
2023/12/13 01:47:10;;;;;;;1.00;0.32;;;;;;;;;;5141957;28;20046;-60
2023/12/13 01:49:41;;;;;;;1.60;0.50;;;;;;;;;;5126707;28;20054;-61
2023/12/13 01:52:13;;;;;;;0.73;0.52;;;;;;;;;;5126507;28;20045;-60
2023/12/13 01:54:44;;;;;;;1.15;0.43;;;;;;;;;;5142709;28;20471;-62
2023/12/13 01:57:15;;;;;;;0.73;0.40;;;;;;;;;;5142307;28;20058;-60
2023/12/13 01:59:47;;;;;;;0.77;0.30;;;;;;;;;;5158393;28;20652;-61
2023/12/13 02:02:18;;;;;;;1.75;0.30;;;;;;;;;;5129798;28;20042;-60
2023/12/13 02:04:49;;;;;;;1.83;0.60;;;;;;;;;;5142715;28;20039;-60
2023/12/13 02:07:20;;;;;;;0.40;0.40;;;;;;;;;;5126064;28;20443;-61
2023/12/13 02:09:52;;;;;;;0.35;0.30;;;;;;;;;;5141995;28;20038;-62
2023/12/13 02:12:23;;;;;;;1.10;0.60;;;;;;;;;;5137666;28;20093;-59
2023/12/13 02:14:54;;;;;;;0.80;0.40;;;;;;;;;;5173966;28;20556;-62
2023/12/13 02:17:25;;;;;;;1.40;0.27;;;;;;;;;;5147542;28;20410;-60
2023/12/13 02:19:57;;;;;;;0.98;0.30;;;;;;;;;;5142877;28;20423;-59
2023/12/13 02:22:30;;;;;;;;;;;;;;;;;;5143323;28;20565;-60
2023/12/13 02:25:02;;;;;;;0.50;0.25;;;;;;;;;;5142314;28;19918;-61
2023/12/13 02:27:33;;;;;;;;;;;;;;;;;;5142557;28;20442;-61
2023/12/13 02:30:05;;;;;;;0.63;0.22;;;;;;;;;;5126177;28;19918;-60
2023/12/13 02:32:37;;;;;;;1.42;0.30;;;;;;;;;;5142225;28;20047;-59
2023/12/13 02:35:08;;;;;;;0.70;0.40;;;;;;;;;;5142143;28;20493;-61
2023/12/13 02:37:39;;;;;;;0.87;0.33;;;;;;;;;;5142010;28;20376;-58
2023/12/13 02:40:13;;;;;;;0.68;0.30;;;;;;;;;;5142155;28;20051;-64
2023/12/13 02:42:44;;;;;;;0.50;0.30;;;;;;;;;;5142241;28;20058;-62
2023/12/13 02:45:16;;;;;;;1.10;0.55;;;;;;;;;;5156756;28;20046;-62
2023/12/13 02:47:49;;;;;;;0.90;0.30;;;;;;;;;;5165749;28;20049;-64
2023/12/13 02:50:21;;;;;;;1.15;0.20;;;;;;;;;;5165826;28;20133;-65
2023/12/13 02:52:52;;;;;;;2.27;0.20;;;;;;;;;;5165930;28;20049;-62
2023/12/13 02:55:23;;;;;;;0.33;0.20;;;;;;;;;;5136579;28;20102;-62
2023/12/13 02:57:54;;;;;;;1.67;0.30;;;;;;;;;;5145289;28;20042;-62
2023/12/13 03:00:25;;;;;;;0.28;0.20;;;;;;;;;;5129454;28;20054;-64
2023/12/13 03:02:57;;;;;;;1.83;0.30;;;;;;;;;;5129503;28;20351;-65
2023/12/13 03:05:28;;;;;;;1.48;0.30;;;;;;;;;;5129219;28;20085;-64
2023/12/13 03:07:59;;;;;;;0.50;0.20;;;;;;;;;;5145101;28;20035;-65
2023/12/13 03:10:31;;;;;;;0.35;0.20;;;;;;;;;;5145288;28;20050;-62
2023/12/13 03:13:02;;;;;;;0.65;0.20;;;;;;;;;;5145216;28;20038;-62
2023/12/13 03:15:33;;;;;;;0.63;0.30;;;;;;;;;;5145204;28;20047;-62
2023/12/13 03:18:04;;;;;;;0.60;0.30;;;;;;;;;;5129037;28;20066;-62
2023/12/13 03:20:35;;;;;;;0.30;0.13;;;;;;;;;;5145479;28;20467;-62
2023/12/13 03:23:07;;;;;;;1.05;0.35;;;;;;;;;;5129294;28;20043;-60
2023/12/13 03:25:40;;;;;;;1.60;0.20;;;;;;;;;;5145145;28;20134;-59
2023/12/13 03:28:11;;;;;;;0.40;0.30;;;;;;;;;;5144857;28;20035;-60
2023/12/13 03:30:43;;;;;;;2.25;0.30;;;;;;;;;;5128800;28;20038;-59
2023/12/13 03:33:14;;;;;;;1.05;0.40;;;;;;;;;;5128728;28;20058;-60
2023/12/13 03:35:45;;;;;;;1.08;0.30;;;;;;;;;;5152301;28;20446;-59
2023/12/13 03:38:16;;;;;;;1.38;0.35;;;;;;;;;;5145029;28;20386;-59
2023/12/13 03:40:47;;;;;;;0.85;0.20;;;;;;;;;;5128671;28;20049;-58
2023/12/13 03:43:18;;;;;;;2.38;0.38;;;;;;;;;;5145053;28;20518;-58
2023/12/13 03:45:50;;;;;;;2.70;0.17;;;;;;;;;;5161071;28;20050;-58
2023/12/13 03:48:21;;;;;;;2.42;0.30;;;;;;;;;;5160639;28;20043;-59
2023/12/13 03:50:52;;;;;;;0.88;0.30;;;;;;;;;;5144865;28;20407;-60
2023/12/13 03:53:23;;;;;;;1.27;0.40;;;;;;;;;;5160543;28;20043;-65
2023/12/13 03:55:54;;;;;;;0.85;0.20;;;;;;;;;;5159353;28;20051;-65
2023/12/13 03:58:26;;;;;;;0.57;0.37;;;;;;;;;;5128009;28;20057;-64
2023/12/13 04:00:59;;;;;;;1.10;0.10;;;;;;;;;;5144104;28;20122;-64
2023/12/13 04:03:30;;;;;;;1.75;0.30;;;;;;;;;;5144075;28;20041;-64
2023/12/13 04:06:03;;;;;;;1.85;0.30;;;;;;;;;;5144217;28;20446;-63
2023/12/13 04:08:34;;;;;;;0.60;0.22;;;;;;;;;;5143593;28;20062;-60
2023/12/13 04:11:06;;;;;;;0.65;0.30;;;;;;;;;;5144181;28;20552;-60
2023/12/13 04:13:37;;;;;;;0.60;0.20;;;;;;;;;;5144332;28;20082;-59
2023/12/13 04:16:08;;;;;;;2.25;0.40;;;;;;;;;;5146435;28;20038;-60
2023/12/13 04:18:39;;;;;;;1.40;0.20;;;;;;;;;;5128009;28;20417;-64
2023/12/13 04:21:11;;;;;;;2.70;0.60;;;;;;;;;;5127815;28;20051;-65
2023/12/13 04:23:42;;;;;;;0.65;0.20;;;;;;;;;;5144098;28;20058;-63
2023/12/13 04:26:13;;;;;;;1.47;0.20;;;;;;;;;;5127511;28;20078;-63
2023/12/13 04:28:44;;;;;;;1.15;0.32;;;;;;;;;;5127371;28;20039;-63
2023/12/13 04:31:16;;;;;;;1.67;0.28;;;;;;;;;;5143599;28;20130;-65
2023/12/13 04:33:47;;;;;;;1.57;0.40;;;;;;;;;;5127558;28;20039;-60
2023/12/13 04:36:19;;;;;;;1.60;0.30;;;;;;;;;;5129312;28;20050;-60
2023/12/13 04:38:50;;;;;;;1.08;0.40;;;;;;;;;;5143902;28;20560;-59
2023/12/13 04:41:21;;;;;;;2.03;0.30;;;;;;;;;;5143693;28;20050;-60
2023/12/13 04:43:52;;;;;;;2.78;0.47;;;;;;;;;;5127403;28;20049;-59
2023/12/13 04:46:23;;;;;;;1.42;0.38;;;;;;;;;;5143365;28;20213;-59
2023/12/13 04:48:54;;;;;;;1.95;0.30;;;;;;;;;;5126844;28;20045;-61
2023/12/13 04:51:26;;;;;;;2.83;0.63;;;;;;;;;;5143551;28;20371;-59
2023/12/13 04:53:58;;;;;;;1.13;0.40;;;;;;;;;;5127272;28;20401;-63
2023/12/13 04:56:29;;;;;;;1.23;0.40;;;;;;;;;;5142957;28;20054;-62
2023/12/13 04:59:00;;;;;;;0.73;0.30;;;;;;;;;;5143061;28;20072;-62
2023/12/13 05:01:31;;;;;;;1.30;0.50;;;;;;;;;;5143087;28;20047;-63
2023/12/13 05:04:02;;;;;;;1.65;0.95;;;;;;;;;;5142554;28;20049;-62
2023/12/13 05:06:33;;;;;;;2.05;0.55;;;;;;;;;;5126298;28;20050;-61
2023/12/13 05:09:04;;;;;;;3.00;0.30;;;;;;;;;;5126556;28;20118;-62
2023/12/13 05:11:36;;;;;;;1.45;0.30;;;;;;;;;;5142864;28;20066;-60
2023/12/13 05:14:07;;;;;;;2.50;0.30;;;;;;;;;;5142992;28;20078;-63
2023/12/13 05:16:38;;;;;;;1.45;0.30;;;;;;;;;;5142041;28;20537;-62
2023/12/13 05:19:09;;;;;;;3.22;0.55;;;;;;;;;;5140876;28;20089;-62
2023/12/13 05:21:40;;;;;;;1.85;0.40;;;;;;;;;;5125090;28;20082;-62
2023/12/13 05:24:11;;;;;;;0.98;0.20;;;;;;;;;;5127690;28;20069;-59
2023/12/13 05:26:42;;;;;;;0.55;0.25;;;;;;;;;;5137497;28;20044;-59
2023/12/13 05:29:13;;;;;;;1.90;0.28;;;;;;;;;;5157971;28;20051;-59
2023/12/13 05:31:45;;;;;;;2.60;0.50;;;;;;;;;;5142236;28;20454;-57
2023/12/13 05:34:16;;;;;;;1.20;0.30;;;;;;;;;;5142287;28;20490;-61
2023/12/13 05:36:47;;;;;;;1.50;0.23;;;;;;;;;;5142498;28;20505;-62
2023/12/13 05:39:18;;;;;;;1.85;0.55;;;;;;;;;;5126322;28;20358;-64
2023/12/13 05:41:50;;;;;;;1.65;0.57;;;;;;;;;;5126541;28;20377;-64
2023/12/13 05:44:21;;;;;;;2.85;0.50;;;;;;;;;;5125882;28;20130;-62
2023/12/13 05:46:52;;;;;;;4.22;0.57;;;;;;;;;;5128250;28;20034;-59
2023/12/13 05:49:23;;;;;;;2.22;0.77;;;;;;;;;;5142092;28;20038;-58
2023/12/13 05:51:54;;;;;;;0.98;0.30;;;;;;;;;;5142789;28;20034;-58
2023/12/13 05:54:25;;;;;;;1.05;0.30;;;;;;;;;;5126983;28;20031;-60
2023/12/13 05:56:57;;;;;;;3.10;0.30;;;;;;;;;;5126681;28;20043;-58
2023/12/13 05:59:28;;;;;;;1.65;0.40;;;;;;;;;;5142616;28;20106;-60
2023/12/13 06:01:59;;;;;;;2.25;0.65;;;;;;;;;;5142635;28;21673;-60
2023/12/13 06:04:30;;;;;;;1.08;0.25;;;;;;;;;;5142241;28;20133;-59
2023/12/13 06:07:01;;;;;;;0.65;0.25;;;;;;;;;;5142298;28;20042;-61
2023/12/13 06:09:33;;;;;;;2.25;0.40;;;;;;;;;;5142594;28;20433;-59
2023/12/13 06:12:04;;;;;;;2.33;0.22;;;;;;;;;;5143255;28;20423;-60
2023/12/13 06:14:35;;;;;;;1.13;0.40;;;;;;;;;;5142887;28;20051;-60
2023/12/13 06:17:06;;;;;;;2.65;0.55;;;;;;;;;;5142843;28;20283;-59
2023/12/13 06:19:37;;;;;;;0.85;0.43;;;;;;;;;;5145277;28;20051;-59
2023/12/13 06:22:10;;;;;;;3.70;0.80;;;;;;;;;;5146349;28;20043;-59
2023/12/13 06:24:41;;;;;;;1.77;0.45;;;;;;;;;;5146593;28;20050;-60
2023/12/13 06:27:12;;;;;;;0.68;0.32;;;;;;;;;;5146339;28;20119;-58
2023/12/13 06:29:44;;;;;;;1.05;0.25;;;;;;;;;;5146656;28;20045;-59
2023/12/13 06:32:15;;;;;;;4.70;0.50;;;;;;;;;;5130220;28;20101;-59
2023/12/13 06:34:47;;;;;;;2.83;0.68;;;;;;;;;;5130682;28;20102;-58
2023/12/13 06:37:18;;;;;;;0.90;0.40;;;;;;;;;;5130959;28;20157;-58
2023/12/13 06:39:49;;;;;;;1.80;0.32;;;;;;;;;;5146582;28;20133;-59
2023/12/13 06:42:20;;;;;;;2.05;0.30;;;;;;;;;;5145773;28;20067;-58
2023/12/13 06:44:51;;;;;;;1.13;0.20;;;;;;;;;;5145632;28;20042;-62
2023/12/13 06:47:22;;;;;;;1.13;0.32;;;;;;;;;;5145727;28;20057;-62
2023/12/13 06:49:53;;;;;;;2.35;1.20;;;;;;;;;;5129988;28;20043;-61
2023/12/13 06:52:25;;;;;;;2.05;0.70;;;;;;;;;;5145879;28;20074;-61
2023/12/13 06:54:56;;;;;;;1.85;0.35;;;;;;;;;;5145796;28;20464;-62
2023/12/13 06:57:27;;;;;;;3.03;0.40;;;;;;;;;;5129325;28;20043;-61
2023/12/13 06:59:58;;;;;;;2.80;0.60;;;;;;;;;;5129367;28;20193;-59
2023/12/13 07:02:30;;;;;;;3.67;0.85;;;;;;;;;;5144670;28;20340;-61
2023/12/13 07:05:02;;;;;;;1.60;0.57;;;;;;;;;;5129744;28;20105;-62
2023/12/13 07:07:33;;;;;;;1.05;0.40;;;;;;;;;;5144791;28;20051;-63
2023/12/13 07:10:04;;;;;;;4.13;1.25;;;;;;;;;;5125549;28;20445;-61
2023/12/13 07:12:35;;;;;;;1.23;0.30;;;;;;;;;;5144873;28;20047;-62
2023/12/13 07:15:06;;;;;;;1.35;0.50;;;;;;;;;;5145042;28;20042;-61
2023/12/13 07:17:38;;;;;;;3.90;0.82;;;;;;;;;;5145213;28;20097;-63
2023/12/13 07:20:10;;;;;;;2.38;0.65;;;;;;;;;;5144977;28;20124;-61
2023/12/13 07:22:41;;;;;;;5.05;0.80;;;;;;;;;;5145193;28;20051;-61
2023/12/13 07:25:12;;;;;;;2.35;0.63;;;;;;;;;;5144846;28;20054;-62
2023/12/13 07:27:43;;;;;;;4.28;1.27;;;;;;;;;;5128848;28;20093;-61
2023/12/13 07:30:14;;;;;;;5.53;0.52;;;;;;;;;;5128665;28;20043;-61
2023/12/13 07:32:46;;;;;;;1.80;0.50;;;;;;;;;;5128400;28;20047;-62
2023/12/13 07:35:18;;;;;;;5.25;0.77;;;;;;;;;;5128664;28;20039;-65
2023/12/13 07:37:49;;;;;;;3.55;0.80;;;;;;;;;;5144743;28;20053;-64
2023/12/13 07:40:20;;;;;;;3.80;1.25;;;;;;;;;;5144843;28;20054;-64
2023/12/13 07:42:51;;;;;;;1.88;0.65;;;;;;;;;;5144579;28;20636;-62
2023/12/13 07:45:22;;;;;;;3.47;1.17;;;;;;;;;;5144209;28;20074;-65
2023/12/13 07:47:54;;;;;;;3.30;0.80;;;;;;;;;;5128295;28;20093;-62
2023/12/13 07:50:25;;;;;;;1.70;0.70;;;;;;;;;;5144041;28;20043;-62
2023/12/13 07:52:56;;;;;;;2.88;0.60;;;;;;;;;;5144069;28;20042;-62
2023/12/13 07:55:27;;;;;;;2.78;0.63;;;;;;;;;;5144259;28;20402;-62
2023/12/13 07:57:58;;;;;;;2.10;0.43;;;;;;;;;;5130088;28;20125;-60
2023/12/13 08:00:29;;;;;;;4.43;0.75;;;;;;;;;;5127809;28;20035;-60
2023/12/13 08:03:01;;;;;;;1.08;0.40;;;;;;;;;;5143082;28;20047;-60
2023/12/13 08:05:32;;;;;;;7.80;0.55;;;;;;;;;;5143500;28;20413;-62
2023/12/13 08:08:03;;;;;;;1.38;0.50;;;;;;;;;;5127773;28;20494;-62
2023/12/13 08:10:34;;;;;;;3.28;0.80;;;;;;;;;;5159940;28;20097;-63
2023/12/13 08:13:05;;;;;;;3.17;0.55;;;;;;;;;;5156674;28;20113;-63
2023/12/13 08:15:36;;;;;;;4.82;0.70;;;;;;;;;;5143680;28;20042;-62
2023/12/13 08:18:08;;;;;;;3.10;0.60;;;;;;;;;;5143173;28;20041;-61
2023/12/13 08:20:39;;;;;;;5.30;0.93;;;;;;;;;;5127121;28;20043;-63
2023/12/13 08:23:10;;;;;;;3.72;0.60;;;;;;;;;;5126822;28;20133;-62
2023/12/13 08:25:41;;;;;;;3.08;0.77;;;;;;;;;;5142937;28;20186;-62
2023/12/13 08:28:12;;;;;;;4.03;0.73;;;;;;;;;;5126190;28;20039;-62
2023/12/13 08:30:43;;;;;;;2.60;0.30;;;;;;;;;;5142439;28;20446;-62
2023/12/13 08:33:15;;;;;;;2.97;0.45;;;;;;;;;;5141459;28;20034;-62
2023/12/13 08:35:46;;;;;;;4.10;1.00;;;;;;;;;;5141309;28;20038;-62
2023/12/13 08:38:17;;;;;;;5.28;0.80;;;;;;;;;;5142807;28;20086;-63
2023/12/13 08:40:48;;;;;;;1.30;0.38;;;;;;;;;;5143075;28;20437;-63
2023/12/13 08:43:19;;;;;;;2.45;0.77;;;;;;;;;;5143344;28;20088;-62
2023/12/13 08:45:51;;;;;;;2.70;0.70;;;;;;;;;;5143707;28;20047;-62
2023/12/13 08:48:23;;;;;;;4.15;1.05;;;;;;;;;;5143841;28;20039;-62
2023/12/13 08:50:54;;;;;;;3.20;0.70;;;;;;;;;;5143613;28;20169;-62
2023/12/13 08:53:26;;;;;;;1.80;0.77;;;;;;;;;;5145533;28;20097;-60
2023/12/13 08:55:57;;;;;;;2.22;0.93;;;;;;;;;;5125773;28;20097;-60
2023/12/13 08:58:28;;;;;;;6.35;1.38;;;;;;;;;;5142753;28;20445;-60
2023/12/13 09:00:59;;;;;;;6.38;1.33;;;;;;;;;;5142887;28;20481;-60
2023/12/13 09:03:30;;;;;;;4.80;1.40;;;;;;;;;;5142563;28;20047;-61
2023/12/13 09:06:01;;;;;;;6.07;0.85;;;;;;;;;;5126476;28;20062;-62
2023/12/13 09:08:33;;;;;;;3.13;1.50;;;;;;;;;;5142818;28;20035;-62
2023/12/13 09:11:05;;;;;;;7.70;1.38;;;;;;;;;;5126709;28;20037;-61
2023/12/13 09:13:36;;;;;;;3.65;0.98;;;;;;;;;;5142609;28;20134;-61
2023/12/13 09:16:07;;;;;;;2.63;1.07;;;;;;;;;;5142899;28;20515;-62
2023/12/13 09:18:43;;;;;;;4.60;0.82;;;;;;;;;;5142386;28;20050;-61
2023/12/13 09:21:14;;;;;;;6.07;1.40;;;;;;;;;;5142534;28;20051;-61
2023/12/13 09:23:45;;;;;;;3.55;1.35;;;;;;;;;;5143032;28;20066;-62
2023/12/13 09:26:17;;;;;;;3.10;1.10;;;;;;;;;;5142665;28;20105;-62
2023/12/13 09:28:48;;;;;;;4.38;1.17;;;;;;;;;;5142819;28;20058;-62
2023/12/13 09:31:19;;;;;;;7.03;1.05;;;;;;;;;;5142599;28;20034;-62
2023/12/13 09:33:52;;;;;;;4.03;0.90;;;;;;;;;;5126944;28;20043;-62
2023/12/13 09:36:23;;;;;;;1.85;0.68;;;;;;;;;;5126913;28;20514;-62
2023/12/13 09:38:55;;;;;;;2.92;0.50;;;;;;;;;;5142937;28;20046;-61
2023/12/13 09:41:27;;;;;;;;;;;;;;;;;;5127013;28;20070;-61
2023/12/13 09:43:58;;;;;;;2.05;0.68;;;;;;;;;;5126916;28;19918;-61
2023/12/13 09:46:30;;;;;;;1.15;0.60;;;;;;;;;;5142435;28;20047;-61
2023/12/13 09:49:01;;;;;;;6.95;2.95;;;;;;;;;;5126538;28;20038;-61
2023/12/13 09:51:32;;;;;;;2.35;0.90;;;;;;;;;;5142774;28;20042;-63
2023/12/13 09:54:05;;;;;;;1.50;0.53;;;;;;;;;;5144274;28;20047;-61
2023/12/13 09:56:36;;;;;;;2.53;0.55;;;;;;;;;;5130061;28;20288;-61
2023/12/13 09:59:07;;;;;;;4.55;0.90;;;;;;;;;;5146780;28;20133;-61
2023/12/13 10:01:38;;;;;;;1.45;0.40;;;;;;;;;;5146120;28;20039;-61
2023/12/13 10:04:10;;;;;;;1.77;0.63;;;;;;;;;;5146305;28;20521;-62
2023/12/13 10:06:42;;;;;;;1.88;0.40;;;;;;;;;;5146057;28;20035;-62
2023/12/13 10:09:14;;;;;;;3.35;0.55;;;;;;;;;;5146413;28;20041;-63
2023/12/13 10:11:45;;;;;;;4.78;0.50;;;;;;;;;;5130156;28;20054;-64
2023/12/13 10:14:17;;;;;;;0.90;0.33;;;;;;;;;;5146012;28;20083;-63
2023/12/13 10:16:48;;;;;;;2.33;0.40;;;;;;;;;;5130161;28;20049;-62
2023/12/13 10:19:19;;;;;;;2.43;0.50;;;;;;;;;;5145868;28;20134;-63
2023/12/13 10:21:50;;;;;;;1.27;0.43;;;;;;;;;;5145709;28;20393;-62
2023/12/13 10:24:23;;;;;;;1.48;0.47;;;;;;;;;;5145666;28;20043;-62
2023/12/13 10:26:55;;;;;;;2.13;0.38;;;;;;;;;;5145865;28;20049;-62
2023/12/13 10:29:26;;;;;;;4.70;0.47;;;;;;;;;;5145935;28;20046;-61
2023/12/13 10:32:00;;;;;;;2.42;0.40;;;;;;;;;;5146061;28;20039;-62
2023/12/13 10:34:31;;;;;;;1.73;0.55;;;;;;;;;;5146131;28;20047;-63
2023/12/13 10:37:03;;;;;;;1.58;0.47;;;;;;;;;;5145893;28;20042;-62
2023/12/13 10:39:35;;;;;;;1.85;0.47;;;;;;;;;;5145697;28;20047;-61
2023/12/13 10:42:07;;;;;;;2.30;0.70;;;;;;;;;;5145675;28;20109;-62
2023/12/13 10:44:38;;;;;;;2.03;0.47;;;;;;;;;;5146018;28;20610;-63
2023/12/13 10:47:10;;;;;;;2.43;0.50;;;;;;;;;;5145115;28;20137;-63
2023/12/13 10:49:45;;;;;;;2.53;0.40;;;;;;;;;;5145288;28;20375;-64
2023/12/13 10:52:17;;;;;;;0.93;0.30;;;;;;;;;;5145293;28;20489;-64
2023/12/13 10:54:48;;;;;;;5.93;0.40;;;;;;;;;;5144749;28;20045;-63
2023/12/13 10:57:19;;;;;;;5.95;0.75;;;;;;;;;;5128746;28;20055;-65
2023/12/13 10:59:51;;;;;;;2.50;0.60;;;;;;;;;;5129622;28;20446;-63
2023/12/13 11:02:24;;;;;;;1.88;0.60;;;;;;;;;;5128987;28;20109;-63
2023/12/13 11:04:55;;;;;;;2.25;0.50;;;;;;;;;;5144833;28;20051;-65
2023/12/13 11:07:26;;;;;;;1.45;0.68;;;;;;;;;;5129245;28;20411;-64
2023/12/13 11:10:01;;;;;;;1.43;0.50;;;;;;;;;;5146977;28;20038;-64
2023/12/13 11:12:32;;;;;;;1.88;0.40;;;;;;;;;;5128794;28;20035;-63
2023/12/13 11:15:12;;;;;;;4.73;0.80;;;;;;;;;;5145052;28;20043;-64
2023/12/13 11:17:48;;;;;;;8.27;0.50;;;;;;;;;;5145568;28;20058;-64
2023/12/13 11:20:20;;;;;;;3.08;0.60;;;;;;;;;;5128439;28;20047;-64
2023/12/13 11:22:56;;;;;;;3.92;0.57;;;;;;;;;;5144735;28;20039;-65
2023/12/13 11:25:37;;;;;;;5.03;0.68;;;;;;;;;;5128760;28;20040;-62
2023/12/13 11:28:08;;;;;;;2.88;0.50;;;;;;;;;;5128811;28;20043;-63
2023/12/13 11:30:41;;;;;;;4.07;0.40;;;;;;;;;;5145139;28;20452;-64
2023/12/13 11:33:12;;;;;;;3.03;0.50;;;;;;;;;;5128966;28;20396;-64
2023/12/13 11:35:46;;;;;;;2.70;1.13;;;;;;;;;;5144403;28;20045;-64
2023/12/13 11:38:17;;;;;;;2.47;0.52;;;;;;;;;;5144552;28;20034;-64
2023/12/13 11:40:48;;;;;;;2.78;0.40;;;;;;;;;;5144491;28;20035;-64
2023/12/13 11:43:19;;;;;;;1.52;0.30;;;;;;;;;;5128556;28;20051;-60
2023/12/13 11:45:51;;;;;;;2.35;0.40;;;;;;;;;;5144986;28;20049;-63
2023/12/13 11:48:22;;;;;;;1.40;0.28;;;;;;;;;;5144758;28;20046;-62
2023/12/13 11:50:54;;;;;;;2.42;0.35;;;;;;;;;;5144873;28;20043;-62
2023/12/13 11:53:25;;;;;;;1.27;0.17;;;;;;;;;;5144809;28;20093;-62
2023/12/13 11:55:57;;;;;;;2.15;0.40;;;;;;;;;;5144586;28;20054;-64
2023/12/13 11:58:29;;;;;;;2.60;0.43;;;;;;;;;;5143824;28;20035;-65
2023/12/13 12:01:01;;;;;;;2.88;0.30;;;;;;;;;;5128168;28;20394;-64
2023/12/13 12:03:32;;;;;;;2.83;0.40;;;;;;;;;;5128324;28;20198;-64
2023/12/13 12:06:13;;;;;;;1.13;0.50;;;;;;;;;;5160392;28;20054;-63
2023/12/13 12:08:47;;;;;;;3.50;1.58;;;;;;;;;;5150871;28;20039;-63
2023/12/13 12:11:22;;;;;;;3.08;1.40;;;;;;;;;;5140521;28;20345;-58
2023/12/13 12:13:55;;;;;;;5.78;1.00;;;;;;;;;;5142962;28;20046;-60
2023/12/13 12:16:26;;;;;;;3.47;1.35;;;;;;;;;;5143082;28;20051;-58
2023/12/13 12:18:57;;;;;;;4.10;1.15;;;;;;;;;;5144249;28;20046;-57
2023/12/13 12:21:32;;;;;;;2.03;0.52;;;;;;;;;;5156989;28;20108;-58
2023/12/13 12:24:03;;;;;;;2.70;0.45;;;;;;;;;;5146466;28;20458;-57
2023/12/13 12:26:34;;;;;;;1.03;0.33;;;;;;;;;;5143776;28;20078;-58
2023/12/13 12:29:05;;;;;;;2.22;0.60;;;;;;;;;;5143706;28;20544;-58
2023/12/13 12:31:37;;;;;;;1.20;0.57;;;;;;;;;;5128092;28;20451;-58
2023/12/13 12:34:13;;;;;;;3.83;0.43;;;;;;;;;;5143837;28;20062;-58
2023/12/13 12:36:44;;;;;;;6.03;0.95;;;;;;;;;;5143974;28;20390;-57
2023/12/13 12:39:15;;;;;;;2.38;0.50;;;;;;;;;;5143567;28;20047;-58
2023/12/13 12:41:46;;;;;;;3.42;0.50;;;;;;;;;;5143079;28;20046;-59
2023/12/13 12:44:17;;;;;;;4.28;0.40;;;;;;;;;;5127004;28;20054;-60
2023/12/13 12:46:48;;;;;;;2.05;0.38;;;;;;;;;;5143358;28;20050;-60
2023/12/13 12:49:19;;;;;;;2.35;0.38;;;;;;;;;;5126638;28;20066;-58
2023/12/13 12:51:51;;;;;;;3.60;0.50;;;;;;;;;;5127317;28;20046;-59
2023/12/13 12:54:22;;;;;;;1.58;0.43;;;;;;;;;;5127183;28;20054;-60
2023/12/13 12:56:53;;;;;;;0.80;0.25;;;;;;;;;;5127177;28;20120;-59
2023/12/13 12:59:24;;;;;;;3.47;0.33;;;;;;;;;;5143102;28;20065;-60
2023/12/13 13:01:56;;;;;;;3.72;0.65;;;;;;;;;;5127165;28;20043;-59
2023/12/13 13:04:27;;;;;;;3.67;0.30;;;;;;;;;;5126512;28;20061;-59
2023/12/13 13:06:58;;;;;;;4.47;0.70;;;;;;;;;;5142262;28;20054;-59
2023/12/13 13:09:29;;;;;;;1.27;0.43;;;;;;;;;;5144455;28;20738;-59
2023/12/13 13:12:02;;;;;;;1.37;0.60;;;;;;;;;;5136103;28;20039;-62
2023/12/13 13:14:33;;;;;;;1.90;0.43;;;;;;;;;;5123556;29;20390;-63
2023/12/13 13:17:05;;;;;;;2.40;0.30;;;;;;;;;;5122121;28;20042;-64
2023/12/13 13:19:36;;;;;;;3.78;0.90;;;;;;;;;;5127483;28;20339;-62
2023/12/13 13:22:07;;;;;;;2.40;0.40;;;;;;;;;;5158720;28;20038;-63
2023/12/13 13:24:38;;;;;;;2.05;0.20;;;;;;;;;;5152663;28;20129;-64
2023/12/13 13:27:09;;;;;;;1.77;0.80;;;;;;;;;;5162673;28;20177;-62
2023/12/13 13:29:40;;;;;;;1.13;0.40;;;;;;;;;;5146745;28;20077;-62
2023/12/13 13:32:11;;;;;;;0.47;0.28;;;;;;;;;;5179268;28;20043;-63
2023/12/13 13:34:42;;;;;;;1.73;0.30;;;;;;;;;;5162749;28;20110;-63
2023/12/13 13:37:14;;;;;;;1.42;0.20;;;;;;;;;;5162640;28;20046;-64
2023/12/13 13:39:45;;;;;;;0.57;0.23;;;;;;;;;;5179174;28;20042;-65
2023/12/13 13:42:16;;;;;;;1.33;0.32;;;;;;;;;;5175306;28;20303;-63
2023/12/13 13:44:47;;;;;;;2.17;0.35;;;;;;;;;;5142718;28;20047;-63
2023/12/13 13:47:19;;;;;;;1.02;0.28;;;;;;;;;;5142688;28;20043;-63
2023/12/13 13:49:50;;;;;;;1.17;0.32;;;;;;;;;;5127091;28;20097;-63
2023/12/13 13:52:21;;;;;;;2.28;0.30;;;;;;;;;;5142950;28;20413;-63
2023/12/13 13:54:52;;;;;;;1.23;0.38;;;;;;;;;;5142767;28;20042;-64
2023/12/13 13:57:23;;;;;;;2.00;0.20;;;;;;;;;;5142406;28;20042;-63
2023/12/13 13:59:54;;;;;;;2.20;0.40;;;;;;;;;;5126511;28;20047;-63
2023/12/13 14:02:32;;;;;;;1.45;0.50;;;;;;;;;;5142138;28;20468;-63
2023/12/13 14:05:04;;;;;;;1.42;0.30;;;;;;;;;;5142083;28;20054;-63
2023/12/13 14:07:35;;;;;;;0.95;0.30;;;;;;;;;;5125700;28;20331;-65
2023/12/13 14:10:07;;;;;;;1.20;0.25;;;;;;;;;;5126058;28;20371;-64
2023/12/13 14:12:39;;;;;;;1.30;0.50;;;;;;;;;;5158381;28;20126;-63
2023/12/13 14:15:11;;;;;;;0.90;0.28;;;;;;;;;;5142352;28;20077;-62
2023/12/13 14:17:42;;;;;;;1.90;0.43;;;;;;;;;;5142307;28;20460;-64
2023/12/13 14:20:13;;;;;;;4.22;0.43;;;;;;;;;;5141113;28;20045;-63
2023/12/13 14:22:44;;;;;;;2.13;0.35;;;;;;;;;;5142037;28;20141;-65
2023/12/13 14:25:15;;;;;;;2.55;0.35;;;;;;;;;;5156179;28;20031;-64
2023/12/13 14:27:46;;;;;;;1.83;0.17;;;;;;;;;;5125236;28;20047;-63
2023/12/13 14:30:21;;;;;;;1.85;0.40;;;;;;;;;;5141428;28;20050;-63
2023/12/13 14:32:53;;;;;;;1.00;0.30;;;;;;;;;;5125318;28;20049;-63
2023/12/13 14:35:24;;;;;;;5.05;0.35;;;;;;;;;;5153041;28;20054;-64
2023/12/13 14:37:55;;;;;;;2.33;0.40;;;;;;;;;;5157232;28;20055;-65
2023/12/13 14:40:27;;;;;;;1.00;0.30;;;;;;;;;;5156054;28;20047;-64
2023/12/13 14:42:58;;;;;;;1.00;0.30;;;;;;;;;;5140555;28;20070;-62
2023/12/13 14:45:30;;;;;;;0.52;0.25;;;;;;;;;;5129127;28;20051;-62
2023/12/13 14:48:01;;;;;;;1.47;0.47;;;;;;;;;;5145097;28;20043;-64
2023/12/13 14:50:32;;;;;;;3.10;0.38;;;;;;;;;;5145080;28;20066;-64
2023/12/13 14:53:04;;;;;;;0.95;0.22;;;;;;;;;;5145106;28;20031;-65
2023/12/13 14:55:35;;;;;;;1.92;0.25;;;;;;;;;;5144557;28;20479;-64
2023/12/13 14:58:06;;;;;;;1.20;0.40;;;;;;;;;;5128969;28;20054;-65
2023/12/13 15:00:37;;;;;;;1.23;0.32;;;;;;;;;;5127874;28;20070;-64
2023/12/13 15:03:09;;;;;;;1.42;0.60;;;;;;;;;;5128370;28;20046;-62
2023/12/13 15:05:40;;;;;;;0.82;0.30;;;;;;;;;;5144482;28;20091;-65
2023/12/13 15:08:12;;;;;;;1.67;0.50;;;;;;;;;;5143122;28;20506;-65